createdAt,value
2023-04-16T00:00:23.056Z,2.00
2023-04-16T00:03:13.851Z,1.80
2023-04-16T00:05:43.249Z,1.90
2023-04-16T00:08:15.128Z,1.90
2023-04-16T00:10:46.568Z,1.90
2023-04-16T00:13:18.663Z,1.90
2023-04-16T00:15:52.097Z,1.90
2023-04-16T00:18:23.244Z,2.00
2023-04-16T00:20:52.937Z,1.70
2023-04-16T00:23:22.914Z,1.90
2023-04-16T00:25:52.310Z,1.60
2023-04-16T00:28:22.101Z,1.70
2023-04-16T00:30:51.440Z,1.90
2023-04-16T00:33:19.917Z,1.80
2023-04-16T00:35:50.637Z,2.20
2023-04-16T00:38:19.758Z,1.70
2023-04-16T00:40:50.178Z,1.90
2023-04-16T00:43:27.340Z,1.90
2023-04-16T00:45:59.498Z,1.80
2023-04-16T00:48:29.016Z,1.90
2023-04-16T00:51:02.263Z,1.80
2023-04-16T00:53:34.434Z,1.60
2023-04-16T00:56:06.621Z,1.70
2023-04-16T00:58:37.291Z,1.70
2023-04-16T01:01:07.855Z,1.60
2023-04-16T01:03:47.179Z,1.70
2023-04-16T01:06:18.751Z,1.70
2023-04-16T01:08:52.468Z,1.70
2023-04-16T01:11:21.285Z,1.80
2023-04-16T01:13:49.355Z,1.70
2023-04-16T01:16:20.346Z,1.60
2023-04-16T01:18:51.949Z,1.70
2023-04-16T01:21:21.903Z,1.50
2023-04-16T01:23:51.830Z,1.60
2023-04-16T01:26:23.064Z,1.60
2023-04-16T01:28:51.510Z,1.80
2023-04-16T01:31:24.167Z,1.80
2023-04-16T01:34:08.886Z,1.60
2023-04-16T01:36:38.576Z,1.60
2023-04-16T01:39:10.930Z,1.80
2023-04-16T01:41:41.306Z,1.80
2023-04-16T01:44:09.844Z,1.60
2023-04-16T01:46:40.199Z,1.40
2023-04-16T01:49:09.696Z,1.70
2023-04-16T01:51:39.756Z,1.40
2023-04-16T01:54:09.371Z,1.80
2023-04-16T01:56:39.507Z,1.80
2023-04-16T01:59:09.593Z,1.70
2023-04-16T02:01:43.102Z,1.70
2023-04-16T02:04:13.184Z,1.60
2023-04-16T02:06:42.141Z,1.60
2023-04-16T02:09:12.971Z,1.70
2023-04-16T02:11:42.394Z,1.80
2023-04-16T02:14:13.890Z,1.70
2023-04-16T02:16:43.591Z,1.60
2023-04-16T02:19:37.899Z,1.70
2023-04-16T02:22:12.049Z,1.60
2023-04-16T02:24:42.729Z,1.80
2023-04-16T02:27:12.596Z,1.50
2023-04-16T02:29:42.514Z,1.90
2023-04-16T02:32:17.583Z,1.60
2023-04-16T02:34:47.260Z,1.70
2023-04-16T02:37:16.154Z,1.80
2023-04-16T02:39:45.881Z,2.00
2023-04-16T02:42:18.051Z,1.70
2023-04-16T02:44:47.164Z,1.60
2023-04-16T02:47:22.023Z,1.70
2023-04-16T02:49:52.494Z,1.50
2023-04-16T02:52:24.592Z,1.80
2023-04-16T02:54:53.724Z,1.70
2023-04-16T02:57:23.789Z,1.70
2023-04-16T02:59:52.553Z,1.80
2023-04-16T03:02:24.110Z,1.70
2023-04-16T03:04:56.651Z,1.80
2023-04-16T03:07:25.780Z,1.70
2023-04-16T03:09:53.958Z,1.90
2023-04-16T03:12:37.077Z,2.20
2023-04-16T03:15:11.862Z,1.80
2023-04-16T03:17:41.089Z,1.90
2023-04-16T03:20:12.054Z,2.00
2023-04-16T03:22:41.152Z,1.80
2023-04-16T03:25:09.825Z,1.80
2023-04-16T03:27:43.754Z,1.60
2023-04-16T03:30:15.409Z,1.90
2023-04-16T03:32:44.658Z,1.80
2023-04-16T03:35:13.284Z,1.90
2023-04-16T03:37:42.278Z,1.90
2023-04-16T03:40:11.784Z,2.00
2023-04-16T03:42:40.155Z,1.70
2023-04-16T03:45:09.658Z,1.80
2023-04-16T03:47:38.836Z,1.70
2023-04-16T03:50:08.299Z,1.90
2023-04-16T03:52:37.678Z,1.90
2023-04-16T03:55:08.916Z,1.60
2023-04-16T03:57:37.905Z,1.80
2023-04-16T04:00:11.689Z,2.10
2023-04-16T04:03:02.903Z,1.70
2023-04-16T04:05:41.304Z,1.90
2023-04-16T04:08:13.608Z,1.90
2023-04-16T04:10:43.446Z,1.90
2023-04-16T04:13:12.319Z,1.80
2023-04-16T04:15:42.029Z,1.80
2023-04-16T04:18:10.160Z,1.70
2023-04-16T04:20:42.163Z,1.70
2023-04-16T04:23:11.895Z,1.70
2023-04-16T04:25:41.047Z,1.60
2023-04-16T04:28:09.484Z,1.90
2023-04-16T04:30:38.141Z,2.00
2023-04-16T04:33:07.456Z,1.90
2023-04-16T04:35:37.046Z,1.60
2023-04-16T04:38:06.198Z,1.80
2023-04-16T04:40:35.234Z,1.70
2023-04-16T04:43:05.157Z,1.50
2023-04-16T04:45:34.419Z,1.50
2023-04-16T04:48:03.633Z,1.70
2023-04-16T04:50:32.357Z,1.90
2023-04-16T04:53:01.936Z,1.80
2023-04-16T04:55:30.434Z,1.90
2023-04-16T04:57:59.859Z,1.70
2023-04-16T05:00:29.878Z,1.90
2023-04-16T05:03:03.203Z,1.60
2023-04-16T05:05:32.815Z,1.60
2023-04-16T05:08:03.202Z,2.00
2023-04-16T05:10:32.683Z,1.70
2023-04-16T05:13:01.470Z,2.00
2023-04-16T05:15:32.125Z,1.60
2023-04-16T05:18:01.486Z,1.90
2023-04-16T05:20:29.702Z,1.90
2023-04-16T05:22:57.770Z,1.90
2023-04-16T05:25:25.759Z,1.80
2023-04-16T05:27:53.907Z,1.90
2023-04-16T05:30:21.796Z,1.80
2023-04-16T05:32:49.931Z,1.80
2023-04-16T05:35:18.121Z,1.60
2023-04-16T05:37:46.597Z,1.80
2023-04-16T05:40:14.986Z,1.60
2023-04-16T05:42:43.048Z,1.70
2023-04-16T05:45:12.057Z,1.60
2023-04-16T05:47:40.156Z,1.90
2023-04-16T05:50:09.377Z,1.80
2023-04-16T05:52:39.126Z,1.80
2023-04-16T05:55:07.526Z,1.70
2023-04-16T05:57:35.574Z,1.90
2023-04-16T06:00:04.769Z,1.70
2023-04-16T06:02:40.995Z,1.50
2023-04-16T06:05:09.444Z,1.70
2023-04-16T06:07:37.499Z,1.90
2023-04-16T06:10:06.943Z,2.10
2023-04-16T06:12:35.677Z,1.90
2023-04-16T06:15:05.736Z,1.60
2023-04-16T06:17:34.712Z,1.80
2023-04-16T06:20:03.382Z,1.70
2023-04-16T06:22:31.756Z,1.70
2023-04-16T06:25:00.156Z,1.70
2023-04-16T06:27:28.832Z,1.90
2023-04-16T06:29:58.346Z,1.80
2023-04-16T06:32:26.841Z,2.00
2023-04-16T06:34:56.646Z,1.90
2023-04-16T06:37:24.971Z,1.80
2023-04-16T06:39:53.358Z,2.00
2023-04-16T06:42:21.668Z,1.90
2023-04-16T06:44:50.079Z,1.90
2023-04-16T06:47:18.810Z,1.70
2023-04-16T06:49:47.591Z,1.80
2023-04-16T06:52:16.525Z,1.80
2023-04-16T06:54:44.890Z,1.90
2023-04-16T06:57:13.060Z,1.80
2023-04-16T06:59:41.949Z,2.00
2023-04-16T07:02:11.130Z,1.80
2023-04-16T07:04:39.532Z,1.90
2023-04-16T07:07:09.353Z,1.80
2023-04-16T07:09:37.718Z,2.00
2023-04-16T07:12:07.516Z,1.80
2023-04-16T07:14:35.914Z,2.10
2023-04-16T07:17:04.646Z,2.00
2023-04-16T07:19:33.086Z,1.80
2023-04-16T07:22:01.762Z,2.00
2023-04-16T07:24:30.794Z,2.20
2023-04-16T07:26:59.036Z,1.90
2023-04-16T07:29:27.256Z,2.20
2023-04-16T07:31:55.856Z,2.10
2023-04-16T07:34:24.277Z,1.80
2023-04-16T07:36:53.116Z,1.90
2023-04-16T07:39:22.102Z,2.20
2023-04-16T07:41:50.467Z,1.90
2023-04-16T07:44:18.936Z,2.20
2023-04-16T07:46:47.782Z,1.90
2023-04-16T07:49:16.701Z,2.00
2023-04-16T07:51:44.899Z,2.20
2023-04-16T07:54:13.149Z,1.90
2023-04-16T07:56:41.227Z,2.10
2023-04-16T07:59:22.176Z,2.30
2023-04-16T08:01:54.302Z,1.90
2023-04-16T08:04:27.369Z,2.00
2023-04-16T08:06:56.918Z,2.00
2023-04-16T08:09:29.324Z,1.90
2023-04-16T08:12:01.500Z,2.10
2023-04-16T08:14:32.035Z,2.20
2023-04-16T08:17:00.829Z,2.20
2023-04-16T08:19:29.828Z,2.20
2023-04-16T08:21:58.391Z,2.20
2023-04-16T08:24:28.752Z,2.10
2023-04-16T08:27:08.056Z,2.80
2023-04-16T08:29:49.389Z,2.70
2023-04-16T08:32:20.263Z,2.30
2023-04-16T08:34:51.363Z,2.70
2023-04-16T08:37:20.938Z,2.10
2023-04-16T08:39:49.611Z,2.50
2023-04-16T08:42:53.324Z,2.70
2023-04-16T08:45:21.798Z,2.50
2023-04-16T08:47:53.689Z,2.50
2023-04-16T08:50:28.416Z,2.70
2023-04-16T08:53:01.606Z,2.50
2023-04-16T08:55:41.669Z,2.40
2023-04-16T08:58:16.304Z,2.20
2023-04-16T09:00:46.487Z,2.50
2023-04-16T09:03:15.785Z,2.40
2023-04-16T09:05:44.377Z,2.60
2023-04-16T09:08:13.378Z,2.30
2023-04-16T09:10:43.278Z,2.60
2023-04-16T09:13:13.566Z,2.40
2023-04-16T09:15:42.458Z,2.40
2023-04-16T09:18:12.312Z,2.40
2023-04-16T09:20:41.029Z,2.30
2023-04-16T09:23:11.743Z,2.30
2023-04-16T09:25:40.259Z,2.60
2023-04-16T09:28:10.145Z,2.50
2023-04-16T09:30:38.741Z,2.60
2023-04-16T09:33:23.067Z,2.80
2023-04-16T09:35:54.925Z,2.60
2023-04-16T09:38:23.300Z,2.60
2023-04-16T09:41:08.514Z,2.60
2023-04-16T09:43:37.477Z,2.50
2023-04-16T09:46:08.202Z,2.70
2023-04-16T09:48:38.547Z,2.80
2023-04-16T09:51:07.784Z,2.60
2023-04-16T09:53:36.143Z,2.60
2023-04-16T09:56:07.368Z,2.70
2023-04-16T09:58:39.218Z,2.70
2023-04-16T10:01:12.224Z,3.10
2023-04-16T10:03:41.730Z,2.80
2023-04-16T10:06:23.804Z,2.80
2023-04-16T10:08:59.058Z,2.90
2023-04-16T10:11:27.434Z,2.60
2023-04-16T10:13:55.701Z,3.00
2023-04-16T10:16:24.516Z,2.90
2023-04-16T10:18:54.569Z,2.50
2023-04-16T10:21:23.094Z,2.60
2023-04-16T10:23:53.520Z,2.80
2023-04-16T10:26:22.725Z,2.70
2023-04-16T10:28:51.989Z,2.70
2023-04-16T10:31:21.008Z,2.80
2023-04-16T10:33:50.628Z,2.90
2023-04-16T10:36:24.991Z,2.70
2023-04-16T10:38:58.660Z,2.80
2023-04-16T10:41:27.849Z,2.80
2023-04-16T10:44:10.651Z,2.80
2023-04-16T10:47:02.426Z,2.50
2023-04-16T10:49:31.679Z,3.00
2023-04-16T10:52:12.242Z,2.90
2023-04-16T10:54:41.582Z,2.90
2023-04-16T10:57:16.103Z,3.00
2023-04-16T10:59:46.383Z,3.00
2023-04-16T11:02:18.521Z,3.20
2023-04-16T11:04:49.846Z,2.80
2023-04-16T11:07:34.622Z,2.90
2023-04-16T11:10:13.030Z,2.80
2023-04-16T11:12:42.314Z,2.90
2023-04-16T11:15:15.713Z,3.00
2023-04-16T11:17:48.767Z,3.10
2023-04-16T11:20:23.547Z,2.90
2023-04-16T11:22:58.334Z,3.00
2023-04-16T11:25:31.973Z,2.90
2023-04-16T11:28:02.775Z,2.70
2023-04-16T11:30:39.709Z,3.20
2023-04-16T11:33:12.543Z,2.70
2023-04-16T11:35:41.682Z,3.20
2023-04-16T11:38:10.154Z,3.00
2023-04-16T11:40:38.292Z,2.90
2023-04-16T11:43:17.648Z,2.80
2023-04-16T11:46:12.972Z,3.00
2023-04-16T11:48:55.598Z,2.90
2023-04-16T11:51:24.275Z,3.50
2023-04-16T11:53:54.773Z,3.20
2023-04-16T11:56:32.787Z,3.20
2023-04-16T11:59:12.157Z,3.00
2023-04-16T12:01:46.168Z,2.90
2023-04-16T12:04:17.551Z,3.30
2023-04-16T12:07:08.468Z,2.90
2023-04-16T12:09:40.727Z,3.30
2023-04-16T12:12:31.662Z,2.70
2023-04-16T12:15:04.633Z,2.70
2023-04-16T12:17:36.737Z,3.00
2023-04-16T12:20:15.983Z,3.00
2023-04-16T12:22:49.894Z,2.60
2023-04-16T12:27:56.136Z,3.10
2023-04-16T12:30:27.208Z,3.20
2023-04-16T12:33:17.153Z,3.10
2023-04-16T12:35:46.146Z,3.10
2023-04-16T12:38:15.666Z,3.20
2023-04-16T12:40:44.140Z,3.10
2023-04-16T12:43:12.926Z,3.20
2023-04-16T12:45:41.626Z,3.00
2023-04-16T12:48:09.790Z,2.80
2023-04-16T12:50:40.006Z,3.00
2023-04-16T12:53:08.042Z,3.30
2023-04-16T12:55:36.773Z,3.10
2023-04-16T12:58:04.957Z,3.10
2023-04-16T13:00:33.280Z,3.70
2023-04-16T13:03:01.551Z,3.00
2023-04-16T13:05:30.075Z,2.90
2023-04-16T13:07:58.353Z,2.90
2023-04-16T13:10:28.168Z,3.30
2023-04-16T13:12:56.546Z,3.20
2023-04-16T13:15:25.158Z,3.10
2023-04-16T13:17:53.667Z,2.70
2023-04-16T13:20:24.346Z,3.10
2023-04-16T13:22:52.624Z,3.10
2023-04-16T13:25:20.902Z,3.00
2023-04-16T13:27:49.277Z,3.10
2023-04-16T13:30:17.993Z,3.00
2023-04-16T13:32:47.112Z,2.90
2023-04-16T13:35:15.451Z,2.90
2023-04-16T13:37:43.510Z,2.80
2023-04-16T13:40:11.894Z,2.60
2023-04-16T13:42:39.988Z,3.00
2023-04-16T13:45:09.725Z,2.90
2023-04-16T13:47:44.921Z,2.80
2023-04-16T13:50:13.606Z,2.80
2023-04-16T13:52:41.769Z,2.60
2023-04-16T13:55:10.764Z,2.90
2023-04-16T13:57:40.902Z,2.90
2023-04-16T14:00:12.664Z,2.70
2023-04-16T14:02:43.370Z,2.90
2023-04-16T14:05:12.369Z,2.70
2023-04-16T14:07:40.664Z,2.40
2023-04-16T14:10:10.358Z,2.60
2023-04-16T14:12:39.672Z,2.40
2023-04-16T14:15:12.243Z,2.50
2023-04-16T14:17:43.616Z,2.40
2023-04-16T14:20:14.170Z,2.60
2023-04-16T14:22:44.048Z,2.60
2023-04-16T14:25:12.628Z,2.70
2023-04-16T14:27:41.932Z,2.80
2023-04-16T14:30:11.168Z,2.70
2023-04-16T14:32:39.645Z,2.60
2023-04-16T14:35:08.953Z,3.20
2023-04-16T14:37:38.603Z,2.90
2023-04-16T14:40:09.101Z,2.70
2023-04-16T14:42:40.594Z,2.90
2023-04-16T14:45:10.008Z,3.00
2023-04-16T14:47:43.220Z,2.80
2023-04-16T14:50:13.706Z,3.00
2023-04-16T14:52:42.396Z,2.90
2023-04-16T14:55:10.785Z,2.80
2023-04-16T14:57:41.796Z,2.70
2023-04-16T15:00:12.330Z,2.70
2023-04-16T15:02:41.562Z,3.00
2023-04-16T15:05:10.787Z,2.50
2023-04-16T15:07:39.127Z,3.00
2023-04-16T15:10:10.211Z,2.90
2023-04-16T15:12:39.674Z,2.60
2023-04-16T15:15:10.749Z,2.90
2023-04-16T15:17:42.985Z,2.60
2023-04-16T15:20:16.863Z,2.70
2023-04-16T15:22:51.549Z,2.80
2023-04-16T15:25:27.454Z,2.90
2023-04-16T15:28:00.797Z,2.60
2023-04-16T15:30:33.853Z,2.50
2023-04-16T15:33:10.895Z,2.50
2023-04-16T15:35:43.783Z,2.90
2023-04-16T15:38:16.846Z,2.90
2023-04-16T15:40:46.736Z,2.70
2023-04-16T15:43:17.079Z,3.00
2023-04-16T15:45:45.708Z,2.90
2023-04-16T15:48:15.288Z,3.10
2023-04-16T15:50:46.859Z,3.30
2023-04-16T15:53:17.821Z,3.40
2023-04-16T15:55:50.762Z,3.00
2023-04-16T15:58:21.258Z,3.50
2023-04-16T16:00:51.690Z,3.30
2023-04-16T16:03:22.657Z,3.20
2023-04-16T16:05:54.054Z,3.20
2023-04-16T16:08:29.144Z,5.50
2023-04-16T16:10:58.192Z,5.50
2023-04-16T16:13:28.440Z,5.00
2023-04-16T16:15:57.912Z,5.20
2023-04-16T16:18:26.213Z,5.40
2023-04-16T16:20:58.525Z,6.70
2023-04-16T16:23:27.273Z,6.30
2023-04-16T16:25:55.546Z,6.90
2023-04-16T16:28:25.289Z,6.80
2023-04-16T16:30:55.860Z,6.40
2023-04-16T16:33:24.328Z,6.40
2023-04-16T16:35:52.347Z,5.90
2023-04-16T16:38:21.178Z,7.40
2023-04-16T16:40:50.120Z,6.60
2023-04-16T16:43:18.293Z,6.50
2023-04-16T16:45:46.782Z,6.20
2023-04-16T16:48:15.064Z,5.90
2023-04-16T16:50:43.239Z,6.30
2023-04-16T16:53:11.506Z,6.30
2023-04-16T16:55:39.724Z,5.30
2023-04-16T16:58:07.926Z,5.50
2023-04-16T17:00:36.412Z,5.20
2023-04-16T17:03:05.311Z,5.30
2023-04-16T17:05:34.013Z,5.00
2023-04-16T17:08:03.890Z,5.30
2023-04-16T17:10:33.025Z,4.90
2023-04-16T17:13:01.118Z,5.00
2023-04-16T17:15:29.484Z,4.30
2023-04-16T17:17:57.913Z,4.50
2023-04-16T17:20:26.344Z,4.90
2023-04-16T17:22:54.826Z,4.70
2023-04-16T17:25:23.008Z,4.40
2023-04-16T17:27:51.583Z,4.70
2023-04-16T17:30:20.377Z,4.20
2023-04-16T17:32:48.719Z,4.50
2023-04-16T17:35:17.297Z,4.20
2023-04-16T17:37:45.578Z,3.90
2023-04-16T17:40:15.755Z,4.20
2023-04-16T17:42:45.752Z,4.00
2023-04-16T17:45:13.823Z,4.10
2023-04-16T17:47:42.543Z,3.90
2023-04-16T17:50:12.113Z,3.70
2023-04-16T17:52:40.594Z,3.60
2023-04-16T17:55:11.423Z,3.90
2023-04-16T17:57:42.589Z,3.90
2023-04-16T18:00:18.292Z,4.20
2023-04-16T18:02:51.951Z,3.60
2023-04-16T18:05:25.553Z,3.90
2023-04-16T18:07:58.844Z,3.60
2023-04-16T18:10:32.951Z,3.50
2023-04-16T18:13:03.887Z,3.70
2023-04-16T18:15:39.710Z,3.60
2023-04-16T18:18:13.451Z,3.50
2023-04-16T18:20:46.738Z,3.90
2023-04-16T18:23:22.324Z,3.50
2023-04-16T18:25:55.103Z,3.60
2023-04-16T18:28:28.536Z,3.50
2023-04-16T18:31:07.558Z,3.80
2023-04-16T18:33:55.409Z,3.60
2023-04-16T18:36:30.576Z,3.80
2023-04-16T18:39:05.414Z,3.90
2023-04-16T18:41:37.419Z,3.60
2023-04-16T18:44:15.734Z,4.20
2023-04-16T18:47:00.017Z,3.80
2023-04-16T18:49:33.711Z,4.00
2023-04-16T18:52:04.577Z,3.70
2023-04-16T18:54:32.839Z,3.60
2023-04-16T18:57:02.250Z,3.70
2023-04-16T18:59:30.512Z,3.70
2023-04-16T19:01:59.410Z,3.30
2023-04-16T19:04:27.644Z,3.50
2023-04-16T19:06:56.881Z,3.20
2023-04-16T19:09:27.311Z,3.60
2023-04-16T19:11:56.198Z,3.10
2023-04-16T19:14:24.583Z,3.50
2023-04-16T19:16:54.906Z,3.60
2023-04-16T19:19:24.219Z,3.60
2023-04-16T19:21:55.180Z,3.10
2023-04-16T19:24:24.452Z,3.50
2023-04-16T19:26:53.751Z,3.40
2023-04-16T19:29:22.345Z,3.50
2023-04-16T19:31:52.044Z,3.50
2023-04-16T19:34:20.942Z,3.40
2023-04-16T19:36:51.255Z,3.20
2023-04-16T19:39:20.022Z,3.40
2023-04-16T19:41:48.120Z,3.90
2023-04-16T19:44:16.415Z,3.50
2023-04-16T19:46:46.004Z,3.30
2023-04-16T19:49:14.284Z,3.40
2023-04-16T19:51:42.869Z,3.40
2023-04-16T19:54:11.547Z,3.30
2023-04-16T19:56:39.736Z,3.60
2023-04-16T19:59:08.048Z,3.50
2023-04-16T20:01:36.482Z,3.40
2023-04-16T20:04:05.225Z,3.90
2023-04-16T20:06:34.343Z,3.70
2023-04-16T20:09:05.585Z,3.30
2023-04-16T20:11:34.758Z,3.30
2023-04-16T20:14:05.327Z,3.70
2023-04-16T20:16:36.531Z,3.60
2023-04-16T20:19:09.133Z,4.50
2023-04-16T20:21:40.724Z,4.90
2023-04-16T20:24:10.799Z,4.70
2023-04-16T20:26:39.121Z,5.00
2023-04-16T20:29:10.599Z,5.20
2023-04-16T20:31:43.584Z,5.40
2023-04-16T20:34:13.488Z,5.20
2023-04-16T20:36:43.281Z,5.30
2023-04-16T20:39:11.701Z,5.00
2023-04-16T20:41:44.546Z,5.30
2023-04-16T20:44:18.377Z,5.20
2023-04-16T20:46:50.307Z,5.20
2023-04-16T20:49:19.525Z,5.00
2023-04-16T20:51:48.301Z,5.00
2023-04-16T20:54:19.656Z,5.20
2023-04-16T20:56:47.927Z,5.80
2023-04-16T20:59:16.614Z,4.70
2023-04-16T21:01:45.936Z,5.40
2023-04-16T21:04:14.569Z,4.80
2023-04-16T21:06:47.900Z,4.90
2023-04-16T21:09:18.031Z,4.80
2023-04-16T21:11:46.804Z,5.00
2023-04-16T21:14:17.172Z,5.20
2023-04-16T21:16:45.620Z,4.90
2023-04-16T21:19:13.993Z,4.90
2023-04-16T21:21:42.471Z,4.80
2023-04-16T21:24:10.852Z,4.90
2023-04-16T21:26:38.925Z,5.10
2023-04-16T21:29:07.933Z,4.90
2023-04-16T21:31:36.750Z,5.20
2023-04-16T21:34:05.505Z,4.90
2023-04-16T21:36:36.739Z,5.60
2023-04-16T21:39:05.285Z,5.00
2023-04-16T21:41:36.405Z,4.70
2023-04-16T21:44:06.500Z,4.80
2023-04-16T21:46:34.909Z,5.50
2023-04-16T21:49:02.936Z,5.00
2023-04-16T21:51:31.237Z,4.90
2023-04-16T21:53:59.384Z,4.90
2023-04-16T21:56:28.091Z,4.60
2023-04-16T21:58:56.156Z,4.80
2023-04-16T22:01:24.571Z,4.80
2023-04-16T22:03:52.965Z,4.60
2023-04-16T22:06:21.497Z,4.70
2023-04-16T22:08:50.320Z,4.80
2023-04-16T22:11:18.476Z,4.60
2023-04-16T22:13:47.966Z,4.30
2023-04-16T22:16:16.359Z,4.70
2023-04-16T22:18:45.433Z,4.60
2023-04-16T22:21:13.817Z,4.20
2023-04-16T22:23:42.189Z,4.60
2023-04-16T22:26:10.722Z,4.50
2023-04-16T22:28:39.356Z,4.20
2023-04-16T22:31:07.869Z,4.30
2023-04-16T22:33:36.424Z,4.20
2023-04-16T22:36:06.002Z,4.10
2023-04-16T22:38:34.696Z,4.30
2023-04-16T22:41:02.973Z,3.90
2023-04-16T22:43:32.097Z,4.30
2023-04-16T22:46:06.684Z,4.00
2023-04-16T22:48:38.247Z,4.30
2023-04-16T22:51:09.118Z,4.10
2023-04-16T22:53:38.373Z,4.10
2023-04-16T22:56:07.405Z,4.00
2023-04-16T22:58:35.472Z,3.90
2023-04-16T23:01:03.712Z,4.10
2023-04-16T23:03:32.439Z,4.20
2023-04-16T23:06:01.333Z,3.90
2023-04-16T23:08:30.118Z,3.80
2023-04-16T23:10:58.296Z,3.70
2023-04-16T23:13:26.902Z,3.70
2023-04-16T23:15:55.519Z,3.70
2023-04-16T23:18:23.918Z,3.80
2023-04-16T23:20:53.750Z,3.60
2023-04-16T23:23:22.239Z,3.90
2023-04-16T23:25:54.625Z,3.40
2023-04-16T23:28:23.764Z,4.00
2023-04-16T23:30:55.429Z,3.60
2023-04-16T23:33:23.644Z,3.60
2023-04-16T23:35:51.816Z,3.30
2023-04-16T23:38:20.991Z,3.20
2023-04-16T23:40:49.585Z,3.30
2023-04-16T23:43:17.965Z,3.20
2023-04-16T23:45:46.110Z,3.10
2023-04-16T23:48:14.295Z,3.30
2023-04-16T23:50:42.600Z,3.30
2023-04-16T23:53:11.704Z,3.10
2023-04-16T23:55:40.380Z,3.20
2023-04-16T23:58:08.653Z,3.30
